createdAt,value
2018-12-14T00:00:59.785Z,17.33
2018-12-14T00:03:31.197Z,15.93
2018-12-14T00:05:59.315Z,18.50
2018-12-14T00:08:28.318Z,17.80
2018-12-14T00:10:57.701Z,16.27
2018-12-14T00:13:27.233Z,19.17
2018-12-14T00:15:57.021Z,19.10
2018-12-14T00:18:28.449Z,18.00
2018-12-14T00:20:58.229Z,18.50
2018-12-14T00:23:26.345Z,18.33
2018-12-14T00:25:54.797Z,18.63
2018-12-14T00:28:23.329Z,18.37
2018-12-14T00:30:52.353Z,18.73
2018-12-14T00:33:23.325Z,19.07
2018-12-14T00:35:55.378Z,20.50
2018-12-14T00:38:23.670Z,20.87
2018-12-14T00:40:54.797Z,17.90
2018-12-14T00:43:23.490Z,18.87
2018-12-14T00:45:55.206Z,18.20
2018-12-14T00:48:24.049Z,20.10
2018-12-14T00:50:54.818Z,20.33
2018-12-14T00:53:24.662Z,19.63
2018-12-14T00:55:53.678Z,19.50
2018-12-14T00:58:24.446Z,21.37
2018-12-14T01:00:53.478Z,18.73
2018-12-14T01:03:23.962Z,21.47
2018-12-14T01:05:52.679Z,20.50
2018-12-14T01:08:21.714Z,20.40
2018-12-14T01:10:50.566Z,20.80
2018-12-14T01:13:21.001Z,21.20
2018-12-14T01:15:50.146Z,21.00
2018-12-14T01:18:20.170Z,20.00
2018-12-14T01:20:48.471Z,22.27
2018-12-14T01:23:16.586Z,22.10
2018-12-14T01:25:46.002Z,19.43
2018-12-14T01:28:14.458Z,20.43
2018-12-14T01:30:42.598Z,22.13
2018-12-14T01:33:12.031Z,23.80
2018-12-14T01:35:40.718Z,20.07
2018-12-14T01:38:09.510Z,20.27
2018-12-14T01:40:41.386Z,22.63
2018-12-14T01:43:09.638Z,21.47
2018-12-14T01:45:37.870Z,22.17
2018-12-14T01:48:06.251Z,21.70
2018-12-14T01:50:35.454Z,22.53
2018-12-14T01:53:03.834Z,22.20
2018-12-14T01:55:32.398Z,21.97
2018-12-14T01:58:00.730Z,22.53
2018-12-14T02:00:29.114Z,21.47
2018-12-14T02:02:57.575Z,20.17
2018-12-14T02:05:25.886Z,21.43
2018-12-14T02:07:54.131Z,21.80
2018-12-14T02:10:22.555Z,21.77
2018-12-14T02:12:50.862Z,21.43
2018-12-14T02:15:19.347Z,23.17
2018-12-14T02:17:47.546Z,20.83
2018-12-14T02:20:15.810Z,22.43
2018-12-14T02:22:44.935Z,20.33
2018-12-14T02:25:13.302Z,22.53
2018-12-14T02:27:41.502Z,20.20
2018-12-14T02:30:15.301Z,21.83
2018-12-14T02:32:43.522Z,22.00
2018-12-14T02:35:12.071Z,22.87
2018-12-14T02:37:40.564Z,23.20
2018-12-14T02:40:08.650Z,22.20
2018-12-14T02:42:37.126Z,24.90
2018-12-14T02:45:05.611Z,21.77
2018-12-14T02:47:33.899Z,25.13
2018-12-14T02:50:02.148Z,22.83
2018-12-14T02:52:30.455Z,22.70
2018-12-14T02:54:58.926Z,21.37
2018-12-14T02:57:28.387Z,21.83
2018-12-14T02:59:56.615Z,25.30
2018-12-14T03:02:24.940Z,22.93
2018-12-14T03:04:53.955Z,22.33
2018-12-14T03:07:22.372Z,23.40
2018-12-14T03:09:51.641Z,23.90
2018-12-14T03:12:26.534Z,27.13
2018-12-14T03:14:50.589Z,22.77
2018-12-14T03:17:19.000Z,24.40
2018-12-14T03:19:47.524Z,24.50
2018-12-14T03:22:16.026Z,24.93
2018-12-14T03:24:44.387Z,24.07
2018-12-14T03:27:12.596Z,22.97
2018-12-14T03:29:40.844Z,26.03
2018-12-14T03:32:09.181Z,24.57
2018-12-14T03:34:37.415Z,25.67
2018-12-14T03:37:06.197Z,23.37
2018-12-14T03:39:34.620Z,24.90
2018-12-14T03:42:04.085Z,24.93
2018-12-14T03:44:32.501Z,23.53
2018-12-14T03:47:01.465Z,24.03
2018-12-14T03:49:30.013Z,24.20
2018-12-14T03:51:58.369Z,23.23
2018-12-14T03:57:01.455Z,25.57
2018-12-14T03:59:29.684Z,22.63
2018-12-14T04:01:57.869Z,24.33
2018-12-14T04:04:26.299Z,23.17
2018-12-14T04:06:54.903Z,22.10
2018-12-14T04:09:24.626Z,23.20
2018-12-14T04:11:52.871Z,24.63
2018-12-14T04:14:21.039Z,24.07
2018-12-14T04:16:49.162Z,23.30
2018-12-14T04:19:17.535Z,31.50
2018-12-14T04:21:46.046Z,22.83
2018-12-14T04:24:14.422Z,24.97
2018-12-14T04:26:42.770Z,20.83
2018-12-14T04:29:12.242Z,21.13
2018-12-14T04:31:41.371Z,22.27
2018-12-14T04:34:09.638Z,22.97
2018-12-14T04:36:38.862Z,23.10
2018-12-14T04:39:08.283Z,19.67
2018-12-14T04:41:36.450Z,20.80
2018-12-14T04:44:05.022Z,24.43
2018-12-14T04:46:34.073Z,23.17
2018-12-14T04:49:02.294Z,21.07
2018-12-14T04:51:30.434Z,21.20
2018-12-14T04:53:58.561Z,21.83
2018-12-14T04:56:26.656Z,23.30
2018-12-14T04:58:55.084Z,21.70
2018-12-14T05:01:23.425Z,22.40
2018-12-14T05:03:51.699Z,21.53
2018-12-14T05:06:19.786Z,26.33
2018-12-14T05:08:48.236Z,21.00
2018-12-14T05:11:16.683Z,20.93
2018-12-14T05:13:44.974Z,22.87
2018-12-14T05:16:19.637Z,23.37
2018-12-14T05:18:48.134Z,21.43
2018-12-14T05:21:16.433Z,22.13
2018-12-14T05:23:45.965Z,24.57
2018-12-14T05:26:14.160Z,22.40
2018-12-14T05:28:45.992Z,21.53
2018-12-14T05:31:15.009Z,24.83
2018-12-14T05:33:43.086Z,23.40
2018-12-14T05:36:11.284Z,24.53
2018-12-14T05:38:43.129Z,23.93
2018-12-14T05:41:13.235Z,22.63
2018-12-14T05:43:41.923Z,23.17
2018-12-14T05:46:12.062Z,25.10
2018-12-14T05:48:41.133Z,24.73
2018-12-14T05:51:09.358Z,24.40
2018-12-14T05:53:37.529Z,21.93
2018-12-14T05:56:06.610Z,24.57
2018-12-14T05:58:37.639Z,25.33
2018-12-14T06:01:06.038Z,22.70
2018-12-14T06:03:40.596Z,24.50
2018-12-14T06:06:08.887Z,23.57
2018-12-14T06:08:37.067Z,23.97
2018-12-14T06:11:05.262Z,24.27
2018-12-14T06:16:19.578Z,24.87
2018-12-14T06:18:47.850Z,25.00
2018-12-14T06:21:15.970Z,23.20
2018-12-14T06:23:44.199Z,25.17
2018-12-14T06:26:12.477Z,25.13
2018-12-14T06:28:41.966Z,28.77
2018-12-14T06:31:10.358Z,30.20
2018-12-14T06:33:38.470Z,22.93
2018-12-14T06:36:12.918Z,27.10
2018-12-14T06:38:42.518Z,28.43
2018-12-14T06:41:11.127Z,26.40
2018-12-14T06:43:39.371Z,28.93
2018-12-14T06:46:09.799Z,27.47
2018-12-14T06:48:42.118Z,28.03
2018-12-14T06:51:12.061Z,25.07
2018-12-14T06:53:43.194Z,27.43
2018-12-14T06:56:26.962Z,27.60
2018-12-14T06:58:57.728Z,28.90
2018-12-14T07:01:32.230Z,27.60
2018-12-14T07:04:00.322Z,28.83
2018-12-14T07:06:28.342Z,28.50
2018-12-14T07:08:56.400Z,29.37
2018-12-14T07:11:24.661Z,25.80
2018-12-14T07:13:52.719Z,31.03
2018-12-14T07:16:20.734Z,27.73
2018-12-14T07:18:48.806Z,27.80
2018-12-14T07:21:16.819Z,28.10
2018-12-14T07:23:44.989Z,28.30
2018-12-14T07:26:13.181Z,27.40
2018-12-14T07:28:41.298Z,27.67
2018-12-14T07:31:09.399Z,33.10
2018-12-14T07:33:37.407Z,30.53
2018-12-14T07:36:05.442Z,30.47
2018-12-14T07:38:33.455Z,29.83
2018-12-14T07:41:01.455Z,33.53
2018-12-14T07:43:29.475Z,34.77
2018-12-14T07:45:57.487Z,38.17
2018-12-14T07:48:25.523Z,30.97
2018-12-14T07:50:53.525Z,28.50
2018-12-14T07:53:21.673Z,31.00
2018-12-14T07:55:49.699Z,28.20
2018-12-14T07:58:17.707Z,27.30
2018-12-14T08:03:31.051Z,27.77
2018-12-14T08:05:59.508Z,27.10
2018-12-14T08:08:37.831Z,29.10
2018-12-14T08:14:00.332Z,31.13
2018-12-14T08:16:28.351Z,31.03
2018-12-14T08:18:56.468Z,31.27
2018-12-14T08:21:25.564Z,32.57
2018-12-14T08:23:53.564Z,27.93
2018-12-14T08:26:21.579Z,29.03
2018-12-14T08:28:49.920Z,31.10
2018-12-14T08:31:19.000Z,28.27
2018-12-14T08:33:47.181Z,28.97
2018-12-14T08:36:15.203Z,29.73
2018-12-14T08:38:43.232Z,35.67
2018-12-14T08:41:11.644Z,30.17
2018-12-14T08:43:41.677Z,31.00
2018-12-14T08:46:09.860Z,32.83
2018-12-14T08:48:37.964Z,26.53
2018-12-14T08:51:06.405Z,30.23
2018-12-14T08:53:34.660Z,27.57
2018-12-14T08:56:03.138Z,27.20
2018-12-14T08:58:31.476Z,25.87
2018-12-14T09:00:59.848Z,26.10
2018-12-14T09:03:28.125Z,26.30
2018-12-14T09:05:56.717Z,26.27
2018-12-14T09:08:24.985Z,23.10
2018-12-14T09:10:53.253Z,26.57
2018-12-14T09:13:21.545Z,27.37
2018-12-14T09:15:49.817Z,25.73
2018-12-14T09:18:18.138Z,24.47
2018-12-14T09:20:46.449Z,29.60
2018-12-14T09:23:14.753Z,31.67
2018-12-14T09:25:43.065Z,27.43
2018-12-14T09:28:11.400Z,26.83
2018-12-14T09:30:42.890Z,27.20
2018-12-14T09:33:10.234Z,25.67
2018-12-14T09:35:38.634Z,27.60
2018-12-14T09:38:06.930Z,23.57
2018-12-14T09:40:35.219Z,25.50
2018-12-14T09:43:03.519Z,23.63
2018-12-14T09:45:31.905Z,24.97
2018-12-14T09:48:00.375Z,23.73
2018-12-14T09:50:29.117Z,25.40
2018-12-14T09:52:57.483Z,26.20
2018-12-14T09:55:25.556Z,24.67
2018-12-14T09:57:53.623Z,22.47
2018-12-14T10:00:21.659Z,24.40
2018-12-14T10:02:55.747Z,23.87
2018-12-14T10:05:23.939Z,20.13
2018-12-14T10:07:58.407Z,19.60
2018-12-14T10:13:12.778Z,19.73
2018-12-14T10:15:40.963Z,20.37
2018-12-14T10:18:08.996Z,19.23
2018-12-14T10:20:37.048Z,20.30
2018-12-14T10:23:06.181Z,19.47
2018-12-14T10:25:34.327Z,23.47
2018-12-14T10:28:02.357Z,20.10
2018-12-14T10:30:30.361Z,19.90
2018-12-14T10:32:58.713Z,20.43
2018-12-14T10:35:26.721Z,19.33
2018-12-14T10:37:58.267Z,16.37
2018-12-14T10:40:26.348Z,16.53
2018-12-14T10:42:54.376Z,16.93
2018-12-14T10:45:24.113Z,20.07
2018-12-14T10:48:03.328Z,17.47
2018-12-14T10:51:54.804Z,17.50
2018-12-14T10:54:23.012Z,16.67
2018-12-14T10:56:51.212Z,16.83
2018-12-14T10:59:19.512Z,18.30
2018-12-14T11:01:54.380Z,16.20
2018-12-14T11:04:23.864Z,18.43
2018-12-14T11:06:52.104Z,17.37
2018-12-14T11:09:20.252Z,19.37
2018-12-14T11:11:57.920Z,17.93
2018-12-14T11:14:25.927Z,18.33
2018-12-14T11:16:54.011Z,17.87
2018-12-14T11:19:51.472Z,18.20
2018-12-14T11:22:20.044Z,20.73
2018-12-14T11:24:48.124Z,18.23
2018-12-14T11:27:16.183Z,20.43
2018-12-14T11:29:44.299Z,18.50
2018-12-14T11:32:12.531Z,19.00
2018-12-14T11:34:40.757Z,17.07
2018-12-14T11:37:08.791Z,19.23
2018-12-14T11:39:36.912Z,19.20
2018-12-14T11:42:05.066Z,18.67
2018-12-14T11:44:33.171Z,18.20
2018-12-14T11:47:02.212Z,17.80
2018-12-14T11:49:30.236Z,17.13
2018-12-14T11:51:58.348Z,19.70
2018-12-14T11:54:26.373Z,18.67
2018-12-14T11:56:54.400Z,20.23
2018-12-14T11:59:24.856Z,21.03
2018-12-14T12:10:30.064Z,20.67
2018-12-14T12:12:58.073Z,18.03
2018-12-14T12:15:26.104Z,19.57
2018-12-14T12:18:22.900Z,23.77
2018-12-14T12:20:50.945Z,20.03
2018-12-14T12:23:20.626Z,22.03
2018-12-14T12:25:59.901Z,22.27
2018-12-14T12:28:27.957Z,20.97
2018-12-14T12:33:42.021Z,17.83
2018-12-14T12:36:10.086Z,17.73
2018-12-14T12:38:38.485Z,17.13
2018-12-14T12:41:06.773Z,14.40
2018-12-14T12:43:44.312Z,16.13
2018-12-14T12:46:12.344Z,15.57
2018-12-14T12:48:41.002Z,15.83
2018-12-14T12:51:09.133Z,14.37
2018-12-14T12:56:23.234Z,14.93
2018-12-14T12:59:11.089Z,16.47
2018-12-14T13:01:44.425Z,15.07
2018-12-14T13:04:12.426Z,14.43
2018-12-14T13:06:40.538Z,14.47
2018-12-14T13:09:08.777Z,13.03
2018-12-14T13:11:36.769Z,15.47
2018-12-14T13:14:04.797Z,15.03
2018-12-14T13:16:32.809Z,14.67
2018-12-14T13:19:00.821Z,17.67
2018-12-14T13:21:28.961Z,15.73
2018-12-14T13:23:57.018Z,19.10
2018-12-14T13:26:25.141Z,16.87
2018-12-14T13:28:53.158Z,15.87
2018-12-14T13:31:21.189Z,15.83
2018-12-14T13:33:49.193Z,14.27
2018-12-14T13:36:17.209Z,20.60
2018-12-14T13:38:50.049Z,15.83
2018-12-14T13:41:23.343Z,17.70
2018-12-14T13:43:51.553Z,18.10
2018-12-14T13:46:19.617Z,14.47
2018-12-14T13:48:47.830Z,16.70
2018-12-14T13:51:16.100Z,18.93
2018-12-14T13:53:44.217Z,16.47
2018-12-14T13:56:12.225Z,15.37
2018-12-14T13:58:40.234Z,14.87
2018-12-14T14:01:08.361Z,15.73
2018-12-14T14:03:36.440Z,17.37
2018-12-14T14:06:04.510Z,17.27
2018-12-14T14:08:33.181Z,16.23
2018-12-14T14:11:01.218Z,16.43
2018-12-14T14:13:29.446Z,16.23
2018-12-14T14:15:57.517Z,18.13
2018-12-14T14:18:25.530Z,20.93
2018-12-14T14:21:02.013Z,14.63
2018-12-14T14:23:30.497Z,13.30
2018-12-14T14:25:58.550Z,14.53
2018-12-14T14:28:26.854Z,17.73
2018-12-14T14:30:54.870Z,16.67
2018-12-14T14:33:22.953Z,16.83
2018-12-14T14:35:51.442Z,17.23
2018-12-14T14:38:19.486Z,21.50
2018-12-14T14:40:47.934Z,16.40
2018-12-14T14:43:16.038Z,18.20
2018-12-14T14:45:44.110Z,21.13
2018-12-14T14:48:12.214Z,17.13
2018-12-14T14:50:40.246Z,17.07
2018-12-14T14:53:08.790Z,18.10
2018-12-14T14:55:36.875Z,19.37
2018-12-14T14:58:05.050Z,28.57
2018-12-14T15:00:33.502Z,16.83
2018-12-14T15:03:01.734Z,17.70
2018-12-14T15:05:29.775Z,22.33
2018-12-14T15:07:57.827Z,16.87
2018-12-14T15:10:54.856Z,17.87
2018-12-14T15:13:24.928Z,15.20
2018-12-14T15:15:52.943Z,14.60
2018-12-14T15:18:20.975Z,19.70
2018-12-14T15:20:48.999Z,17.97
2018-12-14T15:23:17.060Z,17.77
2018-12-14T15:25:45.079Z,17.87
2018-12-14T15:30:47.780Z,18.27
2018-12-14T15:33:15.851Z,20.07
2018-12-14T15:35:52.611Z,17.27
2018-12-14T15:38:22.587Z,17.40
2018-12-14T15:40:50.731Z,23.97
2018-12-14T15:43:18.743Z,15.33
2018-12-14T15:45:46.776Z,18.30
2018-12-14T15:48:14.828Z,18.33
2018-12-14T15:50:42.883Z,16.93
2018-12-14T15:53:26.527Z,18.77
2018-12-14T15:55:55.411Z,15.03
2018-12-14T15:58:23.467Z,16.33
2018-12-14T16:00:51.487Z,19.33
2018-12-14T16:03:19.504Z,20.40
2018-12-14T16:05:47.527Z,20.27
2018-12-14T16:08:15.548Z,18.23
2018-12-14T16:10:43.544Z,21.67
2018-12-14T16:13:11.753Z,17.07
2018-12-14T16:15:43.282Z,19.67
2018-12-14T16:18:11.441Z,15.30
2018-12-14T16:20:39.484Z,15.47
2018-12-14T16:23:07.608Z,17.13
2018-12-14T16:25:35.757Z,21.97
2018-12-14T16:28:06.152Z,16.73
2018-12-14T16:30:34.170Z,17.93
2018-12-14T16:33:02.177Z,16.67
2018-12-14T16:35:30.172Z,15.83
2018-12-14T16:37:58.173Z,31.40
2018-12-14T16:40:26.260Z,19.00
2018-12-14T16:42:59.732Z,31.50
2018-12-14T16:45:31.642Z,19.57
2018-12-14T16:47:59.736Z,26.20
2018-12-14T16:50:27.764Z,27.93
2018-12-14T16:52:56.245Z,33.90
2018-12-14T16:55:24.399Z,18.50
2018-12-14T16:57:52.501Z,25.50
2018-12-14T17:00:20.496Z,24.93
2018-12-14T17:02:48.500Z,19.20
2018-12-14T17:05:16.681Z,18.13
2018-12-14T17:07:44.741Z,21.47
2018-12-14T17:10:12.841Z,22.53
2018-12-14T17:12:40.949Z,26.63
2018-12-14T17:15:08.997Z,20.63
2018-12-14T17:17:37.077Z,17.63
2018-12-14T17:20:05.209Z,16.47
2018-12-14T17:22:33.243Z,24.60
2018-12-14T17:25:03.418Z,17.93
2018-12-14T17:27:31.730Z,18.67
2018-12-14T17:29:59.886Z,18.47
2018-12-14T17:32:28.074Z,22.03
2018-12-14T17:34:56.170Z,18.67
2018-12-14T17:37:24.466Z,21.57
2018-12-14T17:39:52.562Z,41.20
2018-12-14T17:42:20.686Z,17.10
2018-12-14T17:44:49.798Z,18.53
2018-12-14T17:47:18.622Z,26.33
2018-12-14T17:49:46.848Z,23.03
2018-12-14T17:52:15.391Z,22.27
2018-12-14T17:54:43.766Z,20.90
2018-12-14T17:57:20.495Z,22.53
2018-12-14T17:59:50.107Z,20.30
2018-12-14T18:02:20.211Z,21.40
2018-12-14T18:04:50.263Z,19.50
2018-12-14T18:07:20.887Z,21.07
2018-12-14T18:09:50.750Z,22.80
2018-12-14T18:12:20.351Z,22.17
2018-12-14T18:14:50.244Z,23.43
2018-12-14T18:17:18.431Z,19.27
2018-12-14T18:19:46.695Z,23.37
2018-12-14T18:22:15.027Z,21.07
2018-12-14T18:24:43.133Z,31.27
2018-12-14T18:27:11.211Z,28.40
2018-12-14T18:29:39.291Z,28.63
2018-12-14T18:32:07.347Z,21.07
2018-12-14T18:34:35.487Z,22.37
2018-12-14T18:37:04.519Z,20.50
2018-12-14T18:39:32.683Z,20.13
2018-12-14T18:42:00.869Z,20.40
2018-12-14T18:44:29.047Z,21.03
2018-12-14T18:46:59.502Z,29.17
2018-12-14T18:49:31.987Z,24.87
2018-12-14T18:52:02.063Z,20.93
2018-12-14T18:54:30.140Z,28.67
2018-12-14T18:56:58.236Z,21.63
2018-12-14T18:59:26.440Z,23.57
2018-12-14T19:01:55.560Z,23.50
2018-12-14T19:04:23.633Z,22.50
2018-12-14T19:06:52.206Z,18.87
2018-12-14T19:09:20.304Z,21.53
2018-12-14T19:11:48.354Z,22.50
2018-12-14T19:14:16.448Z,22.67
2018-12-14T19:16:44.500Z,23.97
2018-12-14T19:19:12.586Z,21.60
2018-12-14T19:21:40.784Z,20.43
2018-12-14T19:24:08.961Z,24.73
2018-12-14T19:26:37.144Z,25.50
2018-12-14T19:29:05.257Z,22.17
2018-12-14T19:31:33.428Z,19.63
2018-12-14T19:34:01.523Z,22.60
2018-12-14T19:36:29.659Z,22.57
2018-12-14T19:38:58.048Z,26.23
2018-12-14T19:41:26.272Z,22.27
2018-12-14T19:43:54.420Z,18.37
2018-12-14T19:46:22.600Z,19.73
2018-12-14T19:48:50.651Z,19.47
2018-12-14T19:51:18.705Z,23.17
2018-12-14T19:53:46.785Z,21.17
2018-12-14T19:56:14.856Z,19.37
2018-12-14T19:58:42.944Z,19.97
2018-12-14T20:01:10.964Z,21.93
2018-12-14T20:03:39.000Z,21.27
2018-12-14T20:06:07.056Z,24.50
2018-12-14T20:08:35.731Z,25.53
2018-12-14T20:11:03.805Z,23.03
2018-12-14T20:13:31.918Z,22.60
2018-12-14T20:16:00.048Z,21.03
2018-12-14T20:18:28.084Z,34.67
2018-12-14T20:20:57.120Z,21.60
2018-12-14T20:23:25.330Z,22.80
2018-12-14T20:25:53.852Z,29.23
2018-12-14T20:28:22.685Z,34.60
2018-12-14T20:30:50.708Z,34.37
2018-12-14T20:33:18.740Z,26.27
2018-12-14T20:35:46.828Z,22.70
2018-12-14T20:38:14.940Z,28.43
2018-12-14T20:40:43.796Z,21.90
2018-12-14T20:43:11.987Z,21.60
2018-12-14T20:45:57.848Z,22.30
2018-12-14T20:48:25.837Z,23.50
2018-12-14T20:50:53.888Z,24.73
2018-12-14T20:53:29.662Z,23.83
2018-12-14T20:55:57.687Z,22.53
2018-12-14T20:58:25.676Z,21.70
2018-12-14T21:00:53.673Z,21.37
2018-12-14T21:03:21.668Z,26.17
2018-12-14T21:05:49.676Z,23.40
2018-12-14T21:08:17.676Z,22.93
2018-12-14T21:13:31.110Z,25.47
2018-12-14T21:15:59.116Z,27.43
